Time;durP1;ratioP1;P1;durP2;ratioP2;P2;SDS_P1;SDS_P2;PMS_P1;PMS_P2;Temp;Humidity;BMP_temperature;BMP_pressure;BME280_temperature;BME280_humidity;BME280_pressure;Samples;Min_cycle;Max_cycle;Signal;HPM_P1;HPM_P2
2022/09/30 00:00:21;;;;;;;;;;;21.00;85.90;;;;;;5096169;28;19961;-45
2022/09/30 00:02:46;;;;;;;;;;;21.00;85.80;;;;;;5095868;28;19912;-48
2022/09/30 00:05:13;;;;;;;;;;;21.00;85.60;;;;;;5077721;28;19927;-47
2022/09/30 00:07:38;;;;;;;;;;;21.00;85.60;;;;;;5077993;28;19908;-45
2022/09/30 00:10:06;;;;;;;;;;;21.00;85.80;;;;;;5095812;28;19995;-45
2022/09/30 00:12:31;;;;;;;;;;;21.00;85.70;;;;;;5095735;28;20012;-46
2022/09/30 00:14:57;;;;;;;;;;;21.00;85.70;;;;;;5096027;28;20002;-45
2022/09/30 00:17:22;;;;;;;;;;;21.00;85.90;;;;;;5095665;28;20321;-46
2022/09/30 00:19:47;;;;;;;;;;;20.90;85.90;;;;;;5095807;28;19931;-46
2022/09/30 00:22:13;;;;;;;;;;;20.90;86.00;;;;;;5095838;28;19915;-44
2022/09/30 00:24:38;;;;;;;;;;;20.90;86.10;;;;;;5095669;28;19951;-47
2022/09/30 00:27:04;;;;;;;;;;;20.90;86.20;;;;;;5095411;28;19908;-48
2022/09/30 00:29:29;;;;;;;;;;;20.90;86.20;;;;;;5095313;28;19908;-45
2022/09/30 00:31:55;;;;;;;;;;;20.80;86.30;;;;;;5095372;28;19908;-45
2022/09/30 00:34:20;;;;;;;;;;;20.80;86.30;;;;;;5077318;28;19908;-44
2022/09/30 00:36:54;;;;;;;;;;;20.80;86.20;;;;;;5095297;28;19912;-45
2022/09/30 00:39:25;;;;;;;;;;;20.80;86.30;;;;;;5077303;28;19915;-46
2022/09/30 00:41:52;;;;;;;;;;;20.80;86.30;;;;;;5077310;28;20343;-46
2022/09/30 00:44:36;;;;;;;;;;;20.80;86.30;;;;;;5094946;28;19916;-45
2022/09/30 00:47:01;;;;;;;;;;;20.80;86.30;;;;;;5095208;28;19931;-45
2022/09/30 00:49:27;;;;;;;;;;;20.80;86.40;;;;;;5095457;28;20367;-45
2022/09/30 00:51:54;;;;;;;;;;;20.80;86.30;;;;;;5094916;28;19999;-46
2022/09/30 00:54:24;;;;;;;;;;;20.80;86.30;;;;;;5095198;28;19947;-45
2022/09/30 00:56:54;;;;;;;;;;;20.90;86.20;;;;;;5095228;28;19915;-45
2022/09/30 00:59:28;;;;;;;;;;;20.90;86.10;;;;;;5095090;28;19908;-44
2022/09/30 01:01:53;;;;;;;;;;;20.90;85.80;;;;;;5094220;28;20351;-46
2022/09/30 01:04:21;;;;;;;;;;;21.00;85.80;;;;;;5094695;28;19974;-47
2022/09/30 01:06:47;;;;;;;;;;;21.00;85.80;;;;;;5094954;28;20004;-46
2022/09/30 01:09:12;;;;;;;;;;;21.00;85.70;;;;;;5094931;28;19915;-44
2022/09/30 01:11:38;;;;;;;;;;;21.00;85.70;;;;;;5094868;28;19908;-48
2022/09/30 01:14:06;;;;;;;;;;;21.00;86.30;;;;;;5076713;28;19908;-45
2022/09/30 01:16:38;;;;;;;;;;;20.90;85.90;;;;;;5094520;28;19914;-46
2022/09/30 01:19:03;;;;;;;;;;;20.90;85.90;;;;;;5094876;28;19908;-45
2022/09/30 01:21:41;;;;;;;;;;;20.90;86.00;;;;;;5094738;28;19915;-45
2022/09/30 01:24:18;;;;;;;;;;;20.90;86.10;;;;;;5094350;28;19923;-46
2022/09/30 01:26:47;;;;;;;;;;;20.90;86.10;;;;;;5094684;28;20266;-46
2022/09/30 01:29:30;;;;;;;;;;;20.80;86.20;;;;;;5094613;28;20286;-46
2022/09/30 01:32:06;;;;;;;;;;;20.80;86.20;;;;;;5094570;28;19927;-45
2022/09/30 01:34:38;;;;;;;;;;;20.80;86.20;;;;;;5094845;28;20048;-45
2022/09/30 01:37:32;;;;;;;;;;;20.80;86.40;;;;;;5076297;28;20358;-49
2022/09/30 01:39:58;;;;;;;;;;;20.80;86.50;;;;;;5080842;28;19908;-50
2022/09/30 01:42:29;;;;;;;;;;;20.80;86.50;;;;;;5094145;28;19915;-48
2022/09/30 01:45:02;;;;;;;;;;;20.80;87.00;;;;;;5094213;28;19916;-50
2022/09/30 01:47:49;;;;;;;;;;;20.80;86.50;;;;;;5093984;28;20370;-45
2022/09/30 01:50:18;;;;;;;;;;;20.80;86.50;;;;;;5094242;28;20374;-45
2022/09/30 01:52:49;;;;;;;;;;;20.80;86.40;;;;;;5093816;28;20275;-45
2022/09/30 01:55:23;;;;;;;;;;;20.80;86.40;;;;;;5094462;28;19908;-46
2022/09/30 01:57:53;;;;;;;;;;;20.90;86.30;;;;;;5093860;28;20002;-44
2022/09/30 02:00:20;;;;;;;;;;;20.90;86.20;;;;;;5094254;28;19915;-48
2022/09/30 02:03:00;;;;;;;;;;;20.90;86.10;;;;;;5094332;28;20002;-44
2022/09/30 02:05:44;;;;;;;;;;;20.90;85.90;;;;;;5093568;28;19927;-46
2022/09/30 02:08:25;;;;;;;;;;;20.90;85.80;;;;;;5093636;28;19916;-44
2022/09/30 02:10:55;;;;;;;;;;;20.90;85.80;;;;;;5093662;28;20422;-45
2022/09/30 02:13:49;;;;;;;;;;;20.90;85.70;;;;;;5093986;28;19908;-48
2022/09/30 02:16:20;;;;;;;;;;;20.90;85.80;;;;;;5084429;28;19931;-45
2022/09/30 02:18:57;;;;;;;;;;;20.90;85.90;;;;;;5097975;28;19908;-45
2022/09/30 02:21:26;;;;;;;;;;;20.90;85.80;;;;;;5097620;28;19908;-45
2022/09/30 02:23:58;;;;;;;;;;;20.90;86.30;;;;;;5097328;28;19916;-46
2022/09/30 02:26:25;;;;;;;;;;;20.80;86.30;;;;;;5097517;28;19916;-47
2022/09/30 02:29:03;;;;;;;;;;;20.80;86.30;;;;;;5097606;28;19908;-46
2022/09/30 02:31:30;;;;;;;;;;;20.80;86.40;;;;;;5097506;28;19931;-46
2022/09/30 02:33:59;;;;;;;;;;;20.80;86.50;;;;;;5098050;28;19908;-44
2022/09/30 02:36:30;;;;;;;;;;;20.80;86.50;;;;;;5097664;28;19908;-46
2022/09/30 02:39:08;;;;;;;;;;;20.80;86.50;;;;;;5097706;28;19908;-45
2022/09/30 02:41:37;;;;;;;;;;;20.80;86.60;;;;;;5097747;28;19912;-45
2022/09/30 02:44:03;;;;;;;;;;;20.80;86.40;;;;;;5097633;28;19916;-45
2022/09/30 02:46:58;;;;;;;;;;;20.80;86.40;;;;;;5079085;28;19915;-45
2022/09/30 02:49:30;;;;;;;;;;;20.80;86.30;;;;;;5066079;28;19991;-46
2022/09/30 02:52:02;;;;;;;;;;;20.80;86.10;;;;;;5097565;28;19915;-44
2022/09/30 02:54:38;;;;;;;;;;;20.90;85.90;;;;;;5097578;28;19908;-44
2022/09/30 02:57:26;;;;;;;;;;;21.00;85.70;;;;;;5097161;28;19908;-45
2022/09/30 02:59:52;;;;;;;;;;;21.10;85.60;;;;;;5096781;28;19908;-45
2022/09/30 03:02:18;;;;;;;;;;;21.20;85.50;;;;;;5097069;28;19914;-44
2022/09/30 03:04:45;;;;;;;;;;;21.10;85.30;;;;;;5078738;28;20371;-46
2022/09/30 03:07:10;;;;;;;;;;;21.10;85.30;;;;;;5096929;28;20007;-47
2022/09/30 03:09:36;;;;;;;;;;;21.10;85.20;;;;;;5097379;28;20276;-46
2022/09/30 03:12:09;;;;;;;;;;;21.10;85.90;;;;;;5096922;28;19908;-47
2022/09/30 03:14:40;;;;;;;;;;;21.10;85.30;;;;;;5096684;28;19912;-44
2022/09/30 03:17:17;;;;;;;;;;;21.10;85.50;;;;;;5097061;28;19916;-47
2022/09/30 03:19:52;;;;;;;;;;;21.00;85.40;;;;;;5097083;28;19908;-45
2022/09/30 03:22:45;;;;;;;;;;;21.00;85.70;;;;;;5097239;28;20304;-45
2022/09/30 03:25:17;;;;;;;;;;;21.00;85.80;;;;;;5096461;28;20011;-44
2022/09/30 03:27:51;;;;;;;;;;;21.00;85.90;;;;;;5096497;28;19908;-44
2022/09/30 03:30:19;;;;;;;;;;;20.90;85.90;;;;;;5096768;28;19912;-45
2022/09/30 03:32:54;;;;;;;;;;;20.90;86.10;;;;;;5096449;28;19915;-48
2022/09/30 03:35:55;;;;;;;;;;;20.90;86.20;;;;;;5096341;28;19916;-45
2022/09/30 03:38:26;;;;;;;;;;;20.90;86.30;;;;;;5034093;28;19910;-45
2022/09/30 03:41:29;;;;;;;;;;;20.80;86.30;;;;;;5085719;28;19934;-45
2022/09/30 03:44:04;;;;;;;;;;;20.80;86.30;;;;;;5033882;28;19920;-44
2022/09/30 03:46:30;;;;;;;;;;;20.80;86.40;;;;;;5033797;28;20015;-46
2022/09/30 03:48:57;;;;;;;;;;;20.80;86.30;;;;;;5066448;28;19920;-46
2022/09/30 03:51:24;;;;;;;;;;;20.90;86.20;;;;;;5096362;28;19995;-44
2022/09/30 03:53:49;;;;;;;;;;;21.00;86.10;;;;;;5077923;28;19958;-45
2022/09/30 03:56:23;;;;;;;;;;;21.00;85.90;;;;;;5077983;28;19912;-45
2022/09/30 03:58:48;;;;;;;;;;;21.00;85.70;;;;;;5078087;28;20378;-44
2022/09/30 04:01:18;;;;;;;;;;;21.10;85.70;;;;;;5096267;28;19908;-44
2022/09/30 04:03:43;;;;;;;;;;;21.00;85.60;;;;;;5095684;28;19916;-44
2022/09/30 04:06:11;;;;;;;;;;;21.00;85.50;;;;;;5095927;28;20456;-44
2022/09/30 04:08:37;;;;;;;;;;;21.00;85.80;;;;;;5095764;28;19912;-45
2022/09/30 04:11:02;;;;;;;;;;;21.00;85.50;;;;;;5095618;28;19915;-45
2022/09/30 04:13:28;;;;;;;;;;;21.00;85.60;;;;;;5095434;28;19999;-45
2022/09/30 04:15:53;;;;;;;;;;;21.00;85.70;;;;;;5095826;28;19908;-49
2022/09/30 04:18:19;;;;;;;;;;;20.90;85.70;;;;;;5095362;28;19934;-45
2022/09/30 04:20:44;;;;;;;;;;;20.90;85.70;;;;;;5095320;28;19908;-50
2022/09/30 04:23:10;;;;;;;;;;;20.90;85.70;;;;;;5095492;28;19919;-44
2022/09/30 04:25:35;;;;;;;;;;;20.90;85.80;;;;;;5095415;28;19958;-46
2022/09/30 04:28:01;;;;;;;;;;;20.90;85.90;;;;;;5095515;28;19908;-45
2022/09/30 04:30:26;;;;;;;;;;;20.90;86.10;;;;;;5095238;28;19919;-44
2022/09/30 04:32:52;;;;;;;;;;;20.90;86.00;;;;;;5095443;28;20483;-44
2022/09/30 04:35:17;;;;;;;;;;;20.80;86.20;;;;;;5095415;28;20324;-45
2022/09/30 04:37:43;;;;;;;;;;;20.80;86.20;;;;;;5094590;28;19908;-46
2022/09/30 04:40:09;;;;;;;;;;;20.80;86.30;;;;;;5095222;28;19953;-45
2022/09/30 04:42:35;;;;;;;;;;;20.80;86.30;;;;;;5095024;28;19962;-45
2022/09/30 04:45:02;;;;;;;;;;;20.80;86.40;;;;;;5094864;28;19974;-46
2022/09/30 04:47:28;;;;;;;;;;;20.80;86.40;;;;;;5095219;28;19912;-45
2022/09/30 04:49:53;;;;;;;;;;;20.80;86.50;;;;;;5095128;28;20346;-48
2022/09/30 04:52:19;;;;;;;;;;;20.80;86.40;;;;;;5095178;28;19908;-45
2022/09/30 04:54:44;;;;;;;;;;;20.80;86.40;;;;;;5094586;28;19994;-44
2022/09/30 04:57:09;;;;;;;;;;;20.80;86.30;;;;;;5094522;28;19908;-44
2022/09/30 04:59:35;;;;;;;;;;;20.80;86.20;;;;;;5094693;28;19908;-45
2022/09/30 05:02:01;;;;;;;;;;;20.80;86.20;;;;;;5094559;28;19908;-46
2022/09/30 05:04:26;;;;;;;;;;;20.80;86.20;;;;;;5094697;28;19923;-45
2022/09/30 05:06:52;;;;;;;;;;;20.80;86.00;;;;;;5094629;28;20290;-45
2022/09/30 05:09:17;;;;;;;;;;;20.90;85.90;;;;;;5094471;28;19908;-44
2022/09/30 05:11:43;;;;;;;;;;;21.00;85.80;;;;;;5094163;28;20011;-45
2022/09/30 05:14:08;;;;;;;;;;;21.00;85.60;;;;;;5094468;28;20259;-46
2022/09/30 05:16:34;;;;;;;;;;;21.10;85.50;;;;;;5094180;28;19916;-45
2022/09/30 05:18:59;;;;;;;;;;;21.10;85.40;;;;;;5094373;28;19915;-46
2022/09/30 05:21:24;;;;;;;;;;;21.10;85.50;;;;;;5094243;28;20351;-48
2022/09/30 05:23:52;;;;;;;;;;;21.10;85.50;;;;;;5094386;28;19994;-47
2022/09/30 05:26:18;;;;;;;;;;;21.00;85.40;;;;;;5093905;28;19912;-45
2022/09/30 05:28:43;;;;;;;;;;;21.00;85.40;;;;;;5093957;28;19948;-47
2022/09/30 05:31:11;;;;;;;;;;;21.00;85.40;;;;;;5094374;28;19912;-45
2022/09/30 05:33:36;;;;;;;;;;;21.00;85.60;;;;;;5094139;28;20347;-48
2022/09/30 05:36:04;;;;;;;;;;;21.00;85.40;;;;;;5076029;28;19961;-48
2022/09/30 05:38:30;;;;;;;;;;;20.90;85.70;;;;;;5091992;28;19908;-50
2022/09/30 05:40:55;;;;;;;;;;;20.90;85.90;;;;;;5090140;28;19998;-47
2022/09/30 05:43:21;;;;;;;;;;;20.90;85.60;;;;;;5070228;28;19981;-49
2022/09/30 05:45:53;;;;;;;;;;;20.90;85.70;;;;;;5092475;28;19920;-49
2022/09/30 05:48:19;;;;;;;;;;;20.90;85.80;;;;;;5093238;28;19916;-45
2022/09/30 05:50:47;;;;;;;;;;;20.80;85.80;;;;;;5093640;28;19909;-47
2022/09/30 05:53:13;;;;;;;;;;;20.80;86.00;;;;;;5080968;28;19920;-45
2022/09/30 05:55:38;;;;;;;;;;;20.80;86.20;;;;;;5093605;28;19916;-45
2022/09/30 05:58:04;;;;;;;;;;;20.90;86.00;;;;;;5082034;28;20324;-44
2022/09/30 06:00:29;;;;;;;;;;;20.90;86.20;;;;;;5093713;28;19908;-46
2022/09/30 06:02:55;;;;;;;;;;;21.00;85.90;;;;;;5093728;28;20003;-46
2022/09/30 06:05:20;;;;;;;;;;;21.00;86.20;;;;;;5101687;28;20053;-48
2022/09/30 06:07:46;;;;;;;;;;;21.00;85.40;;;;;;5099152;28;19923;-46
2022/09/30 06:10:11;;;;;;;;;;;21.10;85.40;;;;;;5098791;28;19920;-51
2022/09/30 06:12:37;;;;;;;;;;;21.10;84.80;;;;;;5109697;28;19912;-51
2022/09/30 06:15:04;;;;;;;;;;;21.10;82.80;;;;;;5087647;28;20533;-50
2022/09/30 06:17:29;;;;;;;;;;;21.00;82.20;;;;;;5107777;28;20269;-49
2022/09/30 06:19:55;;;;;;;;;;;20.90;82.10;;;;;;5087582;28;19912;-49
2022/09/30 06:22:21;;;;;;;;;;;20.90;82.00;;;;;;5090007;28;19908;-52
2022/09/30 06:24:46;;;;;;;;;;;20.80;82.00;;;;;;5093349;28;19920;-48
2022/09/30 06:27:12;;;;;;;;;;;20.80;82.10;;;;;;5095923;28;20369;-46
2022/09/30 06:29:37;;;;;;;;;;;20.80;82.80;;;;;;5094905;28;19915;-47
2022/09/30 06:32:03;;;;;;;;;;;20.80;84.80;;;;;;5093588;28;20278;-46
2022/09/30 06:34:28;;;;;;;;;;;20.80;85.00;;;;;;5093017;28;19912;-46
2022/09/30 06:36:54;;;;;;;;;;;20.80;85.00;;;;;;5093240;28;19915;-48
2022/09/30 06:39:19;;;;;;;;;;;20.80;85.00;;;;;;5093383;28;19912;-52
2022/09/30 06:41:45;;;;;;;;;;;20.80;85.00;;;;;;5092887;28;19919;-46
2022/09/30 06:44:11;;;;;;;;;;;20.80;85.10;;;;;;5093718;28;20339;-47
2022/09/30 06:46:37;;;;;;;;;;;20.80;85.60;;;;;;5093646;28;19966;-49
2022/09/30 06:49:03;;;;;;;;;;;20.80;85.10;;;;;;5093388;28;19908;-48
2022/09/30 06:51:32;;;;;;;;;;;20.80;85.10;;;;;;5093426;28;20297;-47
2022/09/30 06:53:57;;;;;;;;;;;20.80;85.00;;;;;;5093352;28;20045;-47
2022/09/30 06:56:23;;;;;;;;;;;20.80;84.90;;;;;;5092876;28;19908;-48
2022/09/30 06:58:48;;;;;;;;;;;20.90;84.80;;;;;;5092655;28;19963;-47
2022/09/30 07:01:14;;;;;;;;;;;21.00;84.50;;;;;;5095940;28;19914;-48
2022/09/30 07:03:43;;;;;;;;;;;21.20;84.20;;;;;;5096492;28;20255;-50
2022/09/30 07:06:09;;;;;;;;;;;21.30;83.80;;;;;;5096191;28;19959;-49
2022/09/30 07:08:36;;;;;;;;;;;21.40;83.40;;;;;;5097046;28;19920;-51
2022/09/30 07:11:04;;;;;;;;;;;21.50;83.20;;;;;;5078538;28;19994;-48
2022/09/30 07:13:29;;;;;;;;;;;21.50;83.10;;;;;;5096797;28;19908;-53
2022/09/30 07:15:55;;;;;;;;;;;21.50;83.10;;;;;;5096481;28;20282;-51
2022/09/30 07:18:26;;;;;;;;;;;21.40;83.10;;;;;;5096655;28;20347;-51
2022/09/30 07:20:52;;;;;;;;;;;21.40;83.20;;;;;;5096687;28;20339;-51
2022/09/30 07:23:19;;;;;;;;;;;21.30;83.30;;;;;;5096241;28;19920;-51
2022/09/30 07:25:50;;;;;;;;;;;21.30;83.50;;;;;;5096357;28;20108;-48
2022/09/30 07:28:16;;;;;;;;;;;21.20;83.50;;;;;;5078287;28;19912;-49
2022/09/30 07:30:42;;;;;;;;;;;21.20;83.70;;;;;;5096135;28;20382;-52
2022/09/30 07:33:08;;;;;;;;;;;21.20;83.80;;;;;;5096083;28;19948;-49
2022/09/30 07:35:33;;;;;;;;;;;21.10;83.90;;;;;;5096193;28;19915;-51
2022/09/30 07:38:00;;;;;;;;;;;21.10;84.10;;;;;;5095907;28;19908;-50
2022/09/30 07:40:30;;;;;;;;;;;21.00;84.10;;;;;;5096035;28;20367;-47
2022/09/30 07:42:56;;;;;;;;;;;21.00;84.20;;;;;;5095952;28;19908;-47
2022/09/30 07:45:22;;;;;;;;;;;20.90;84.20;;;;;;5096269;28;19941;-51
2022/09/30 07:47:47;;;;;;;;;;;20.90;84.30;;;;;;5095941;28;20359;-49
2022/09/30 07:50:14;;;;;;;;;;;20.90;84.40;;;;;;5077619;28;19955;-51
2022/09/30 07:52:39;;;;;;;;;;;20.90;84.50;;;;;;5095614;28;19908;-47
2022/09/30 07:55:05;;;;;;;;;;;20.80;84.50;;;;;;5095529;28;20278;-48
2022/09/30 07:57:30;;;;;;;;;;;20.90;84.40;;;;;;5095405;28;19908;-49
2022/09/30 07:59:56;;;;;;;;;;;20.90;84.40;;;;;;5095887;28;19972;-50
2022/09/30 08:02:23;;;;;;;;;;;21.00;84.20;;;;;;5095700;28;19908;-48
2022/09/30 08:04:48;;;;;;;;;;;21.10;84.00;;;;;;5095405;28;19920;-50
2022/09/30 08:07:15;;;;;;;;;;;21.20;83.80;;;;;;5094930;28;20346;-49
2022/09/30 08:09:40;;;;;;;;;;;21.20;83.50;;;;;;5095103;28;20389;-49
2022/09/30 08:12:06;;;;;;;;;;;21.30;83.40;;;;;;5093990;28;19912;-48
2022/09/30 08:14:32;;;;;;;;;;;21.30;83.40;;;;;;5095228;28;20251;-48
2022/09/30 08:16:59;;;;;;;;;;;21.20;83.40;;;;;;5095120;28;19908;-47
2022/09/30 08:19:25;;;;;;;;;;;21.20;83.50;;;;;;5095094;28;20337;-52
2022/09/30 08:21:54;;;;;;;;;;;21.20;83.60;;;;;;5095238;28;20270;-51
2022/09/30 08:24:19;;;;;;;;;;;21.20;83.70;;;;;;5094941;28;19958;-47
2022/09/30 08:26:45;;;;;;;;;;;21.10;83.70;;;;;;5060143;28;19916;-47
2022/09/30 08:29:13;;;;;;;;;;;21.10;83.80;;;;;;5094723;28;19915;-48
2022/09/30 08:31:39;;;;;;;;;;;21.00;83.90;;;;;;5094846;28;20374;-50
2022/09/30 08:34:04;;;;;;;;;;;21.00;84.00;;;;;;5095139;28;19915;-50
2022/09/30 08:36:30;;;;;;;;;;;21.00;84.10;;;;;;5094818;28;20376;-47
2022/09/30 08:38:55;;;;;;;;;;;21.00;84.20;;;;;;5095117;28;19908;-47
2022/09/30 08:41:40;;;;;;;;;;;20.90;84.20;;;;;;5095217;28;19915;-47
2022/09/30 08:44:24;;;;;;;;;;;20.90;84.30;;;;;;5094892;28;19916;-48
2022/09/30 08:47:09;;;;;;;;;;;20.90;84.30;;;;;;5094852;28;19919;-47
2022/09/30 08:49:43;;;;;;;;;;;20.90;84.40;;;;;;5094710;28;19909;-48
2022/09/30 08:52:11;;;;;;;;;;;20.80;84.30;;;;;;5094231;28;20263;-52
2022/09/30 08:54:38;;;;;;;;;;;20.90;84.30;;;;;;5094842;28;20363;-48
2022/09/30 08:57:04;;;;;;;;;;;20.90;84.20;;;;;;5094330;28;19915;-50
2022/09/30 08:59:32;;;;;;;;;;;21.00;84.00;;;;;;5094122;28;19947;-49
2022/09/30 09:02:18;;;;;;;;;;;21.10;83.70;;;;;;5094806;28;19908;-48
2022/09/30 09:04:44;;;;;;;;;;;21.20;83.60;;;;;;5093495;28;19946;-51
2022/09/30 09:07:10;;;;;;;;;;;21.20;83.50;;;;;;5094114;28;20348;-47
2022/09/30 09:09:35;;;;;;;;;;;21.20;83.40;;;;;;5094288;28;20274;-52
2022/09/30 09:12:08;;;;;;;;;;;21.20;83.40;;;;;;5094274;28;19908;-52
2022/09/30 09:14:33;;;;;;;;;;;21.20;83.50;;;;;;5094420;28;20358;-51
2022/09/30 09:17:05;;;;;;;;;;;21.10;83.60;;;;;;5076168;28;19959;-50
2022/09/30 09:19:40;;;;;;;;;;;21.10;83.70;;;;;;5076153;28;19953;-50
2022/09/30 09:22:08;;;;;;;;;;;21.00;83.70;;;;;;5094030;28;19908;-46
2022/09/30 09:24:47;;;;;;;;;;;21.00;83.80;;;;;;5093702;28;19912;-49
2022/09/30 09:27:22;;;;;;;;;;;21.00;83.90;;;;;;5094451;28;19947;-51
2022/09/30 09:29:47;;;;;;;;;;;21.00;84.00;;;;;;5094234;28;20372;-47
2022/09/30 09:32:14;;;;;;;;;;;21.00;84.10;;;;;;5094191;28;19999;-47
2022/09/30 09:34:40;;;;;;;;;;;20.90;84.10;;;;;;5094005;28;19908;-47
2022/09/30 09:38:23;;;;;;;;;;;20.90;84.20;;;;;;5093818;28;19915;-50
2022/09/30 09:40:17;;;;;;;;;;;20.90;84.20;;;;;;5093462;28;19969;-49
2022/09/30 09:42:45;;;;;;;;;;;20.90;84.80;;;;;;5094119;28;19915;-48
2022/09/30 09:45:29;;;;;;;;;;;20.80;84.30;;;;;;5093831;28;20393;-50
2022/09/30 09:47:56;;;;;;;;;;;20.80;84.30;;;;;;5093939;28;19912;-47
2022/09/30 09:50:37;;;;;;;;;;;20.80;84.40;;;;;;5093395;28;20309;-47
2022/09/30 09:53:03;;;;;;;;;;;20.80;84.30;;;;;;5093556;28;19908;-47
2022/09/30 09:55:28;;;;;;;;;;;20.90;84.20;;;;;;5093929;28;20313;-47
2022/09/30 09:58:04;;;;;;;;;;;21.00;84.00;;;;;;5093447;28;20370;-49
2022/09/30 10:03:19;;;;;;;;;;;21.20;83.50;;;;;;5093676;28;19916;-49
2022/09/30 10:05:46;;;;;;;;;;;21.20;83.30;;;;;;5093218;28;20293;-46
2022/09/30 10:08:15;;;;;;;;;;;21.20;83.10;;;;;;5093853;28;19919;-50
2022/09/30 10:10:51;;;;;;;;;;;21.30;83.20;;;;;;5093369;28;19944;-47
2022/09/30 10:13:18;;;;;;;;;;;21.20;83.10;;;;;;5093912;28;19908;-47
2022/09/30 10:15:44;;;;;;;;;;;21.20;83.30;;;;;;5093768;28;19909;-49
2022/09/30 10:18:16;;;;;;;;;;;21.20;83.30;;;;;;5094126;28;19908;-49
2022/09/30 10:20:48;;;;;;;;;;;21.20;83.50;;;;;;5075674;28;19908;-47
2022/09/30 10:23:19;;;;;;;;;;;21.10;83.60;;;;;;5093654;28;19920;-49
2022/09/30 10:26:02;;;;;;;;;;;21.10;83.70;;;;;;5093638;28;19930;-48
2022/09/30 10:28:30;;;;;;;;;;;21.10;83.80;;;;;;5093575;28;20316;-47
2022/09/30 10:31:13;;;;;;;;;;;21.00;83.80;;;;;;5093390;28;19908;-46
2022/09/30 10:33:45;;;;;;;;;;;21.00;83.90;;;;;;5093372;28;20271;-50
2022/09/30 10:36:13;;;;;;;;;;;21.00;83.90;;;;;;5096318;28;20057;-47
2022/09/30 10:38:59;;;;;;;;;;;21.00;84.00;;;;;;5079379;28;19912;-49
2022/09/30 10:41:26;;;;;;;;;;;20.90;84.00;;;;;;5078783;28;19915;-47
2022/09/30 10:43:53;;;;;;;;;;;21.00;84.00;;;;;;5097346;28;19916;-46
2022/09/30 10:46:27;;;;;;;;;;;21.00;84.00;;;;;;5097057;28;20273;-48
2022/09/30 10:48:53;;;;;;;;;;;21.00;83.90;;;;;;5078938;28;20497;-47
2022/09/30 10:51:23;;;;;;;;;;;21.00;83.70;;;;;;5097207;28;19915;-47
2022/09/30 10:53:49;;;;;;;;;;;21.10;83.70;;;;;;5096882;28;19908;-49
2022/09/30 10:56:30;;;;;;;;;;;21.20;83.50;;;;;;5096885;28;19915;-46
2022/09/30 10:58:56;;;;;;;;;;;21.20;83.30;;;;;;5096778;28;19912;-50
2022/09/30 11:01:31;;;;;;;;;;;21.20;83.20;;;;;;5096962;28;19908;-51
2022/09/30 11:04:11;;;;;;;;;;;21.20;83.10;;;;;;5096391;28;19961;-50
2022/09/30 11:06:38;;;;;;;;;;;21.20;83.20;;;;;;5079071;28;20278;-45
2022/09/30 11:09:13;;;;;;;;;;;21.20;83.20;;;;;;5096586;28;19991;-47
2022/09/30 11:11:40;;;;;;;;;;;21.20;83.20;;;;;;5096941;28;19961;-49
2022/09/30 11:14:22;;;;;;;;;;;21.20;83.40;;;;;;5096710;28;19962;-47
2022/09/30 11:16:56;;;;;;;;;;;21.10;83.50;;;;;;5096375;28;19995;-47
2022/09/30 11:19:38;;;;;;;;;;;21.10;83.60;;;;;;5096153;28;19908;-47
2022/09/30 11:22:28;;;;;;;;;;;21.10;83.70;;;;;;5096474;28;19908;-50
2022/09/30 11:24:56;;;;;;;;;;;21.00;83.80;;;;;;5096195;28;19912;-47
2022/09/30 11:27:33;;;;;;;;;;;21.00;83.90;;;;;;5096203;28;20003;-48
2022/09/30 11:30:10;;;;;;;;;;;21.00;83.90;;;;;;5096144;28;19908;-51
2022/09/30 11:32:44;;;;;;;;;;;21.00;84.00;;;;;;5096589;28;19908;-48
2022/09/30 11:35:27;;;;;;;;;;;20.90;83.90;;;;;;5096169;28;19928;-47
2022/09/30 11:38:11;;;;;;;;;;;20.90;83.90;;;;;;5077498;28;19912;-46
2022/09/30 11:40:37;;;;;;;;;;;21.00;83.90;;;;;;5095678;28;20299;-49
2022/09/30 11:43:15;;;;;;;;;;;21.00;83.70;;;;;;5096135;28;19915;-51
2022/09/30 11:45:52;;;;;;;;;;;21.10;83.70;;;;;;5095199;28;20007;-46
2022/09/30 11:48:38;;;;;;;;;;;21.10;83.40;;;;;;5095612;28;19915;-48
2022/09/30 11:51:08;;;;;;;;;;;21.20;83.30;;;;;;5085049;28;19908;-49
2022/09/30 11:53:33;;;;;;;;;;;21.20;83.20;;;;;;5096068;28;19962;-47
2022/09/30 11:56:05;;;;;;;;;;;21.20;83.10;;;;;;5095264;28;19908;-51
2022/09/30 11:58:40;;;;;;;;;;;21.20;83.20;;;;;;5095371;28;19995;-49
2022/09/30 12:01:11;;;;;;;;;;;21.20;83.20;;;;;;5095714;28;19953;-47
2022/09/30 12:03:43;;;;;;;;;;;21.20;83.30;;;;;;5077485;28;19935;-49
2022/09/30 12:06:12;;;;;;;;;;;21.10;83.30;;;;;;5095106;28;20291;-47
2022/09/30 12:08:48;;;;;;;;;;;21.10;83.40;;;;;;5095541;28;19963;-47
2022/09/30 12:11:17;;;;;;;;;;;21.10;83.50;;;;;;5095052;28;19915;-50
2022/09/30 12:13:47;;;;;;;;;;;21.00;83.60;;;;;;5095538;28;20251;-51
2022/09/30 12:16:18;;;;;;;;;;;21.00;83.70;;;;;;5095485;28;19908;-52
2022/09/30 12:18:46;;;;;;;;;;;21.00;83.80;;;;;;5095503;28;19977;-49
2022/09/30 12:21:14;;;;;;;;;;;21.00;83.90;;;;;;5095297;28;19961;-48
2022/09/30 12:23:48;;;;;;;;;;;20.90;83.90;;;;;;5094785;28;19923;-51
2022/09/30 12:26:14;;;;;;;;;;;20.90;83.90;;;;;;5095212;28;20359;-48
2022/09/30 12:31:28;;;;;;;;;;;20.90;83.90;;;;;;5095276;28;19915;-46
2022/09/30 12:34:12;;;;;;;;;;;20.90;83.90;;;;;;5095134;28;20003;-47
2022/09/30 12:36:46;;;;;;;;;;;21.00;83.80;;;;;;5094634;28;19912;-47
2022/09/30 12:39:30;;;;;;;;;;;21.00;83.70;;;;;;5095129;28;19939;-47
2022/09/30 12:42:02;;;;;;;;;;;21.10;83.40;;;;;;5094552;28;19999;-50
2022/09/30 12:44:39;;;;;;;;;;;21.20;83.10;;;;;;5094772;28;19916;-47
2022/09/30 12:47:21;;;;;;;;;;;21.30;82.90;;;;;;5094464;28;19999;-46
2022/09/30 12:49:47;;;;;;;;;;;21.30;82.70;;;;;;5094956;28;19912;-51
2022/09/30 12:52:14;;;;;;;;;;;21.40;82.70;;;;;;5094600;28;20320;-47
2022/09/30 12:54:42;;;;;;;;;;;21.40;82.60;;;;;;5094804;28;19908;-48
2022/09/30 12:57:08;;;;;;;;;;;21.30;82.60;;;;;;5094401;28;19927;-50
2022/09/30 12:59:35;;;;;;;;;;;21.30;82.80;;;;;;5094294;28;19908;-51
2022/09/30 13:02:02;;;;;;;;;;;21.20;82.80;;;;;;5094511;28;19908;-48
2022/09/30 13:04:30;;;;;;;;;;;21.20;83.00;;;;;;5076015;28;19924;-46
2022/09/30 13:06:56;;;;;;;;;;;21.20;83.20;;;;;;5093992;28;20374;-51
2022/09/30 13:09:28;;;;;;;;;;;21.10;83.20;;;;;;5094345;28;19908;-50
2022/09/30 13:11:54;;;;;;;;;;;21.10;83.30;;;;;;5094217;28;19907;-48
2022/09/30 13:14:28;;;;;;;;;;;21.10;83.40;;;;;;5094539;28;19915;-50
2022/09/30 13:17:01;;;;;;;;;;;21.00;83.50;;;;;;5094184;28;19908;-50
2022/09/30 13:19:35;;;;;;;;;;;21.00;83.60;;;;;;5094246;28;19916;-47
2022/09/30 13:22:23;;;;;;;;;;;21.00;83.70;;;;;;5094008;28;19915;-48
2022/09/30 13:25:04;;;;;;;;;;;21.00;83.70;;;;;;5065909;28;19968;-48
2022/09/30 13:27:33;;;;;;;;;;;21.00;83.70;;;;;;5094410;28;19977;-51
2022/09/30 13:30:00;;;;;;;;;;;21.00;83.70;;;;;;5094105;28;19943;-47
2022/09/30 13:32:36;;;;;;;;;;;21.00;83.60;;;;;;5075995;28;19918;-48
2022/09/30 13:35:21;;;;;;;;;;;21.00;83.50;;;;;;5094279;28;20007;-49
2022/09/30 13:38:07;;;;;;;;;;;21.10;83.30;;;;;;5093719;28;19918;-49
2022/09/30 13:40:32;;;;;;;;;;;21.20;83.20;;;;;;5093848;28;20343;-51
2022/09/30 13:42:59;;;;;;;;;;;21.20;82.90;;;;;;5093978;28;19991;-50
2022/09/30 13:45:30;;;;;;;;;;;21.20;82.90;;;;;;5075797;28;19916;-52
2022/09/30 13:48:04;;;;;;;;;;;21.20;82.90;;;;;;5075747;28;19957;-47
2022/09/30 13:50:31;;;;;;;;;;;21.20;82.90;;;;;;5093478;28;19908;-48
2022/09/30 13:53:03;;;;;;;;;;;21.20;83.00;;;;;;5093499;28;19912;-47
2022/09/30 13:55:38;;;;;;;;;;;21.20;83.10;;;;;;5093514;28;19908;-50
2022/09/30 13:58:15;;;;;;;;;;;21.10;83.10;;;;;;5093848;28;19930;-50
2022/09/30 14:00:59;;;;;;;;;;;21.10;83.30;;;;;;5093738;28;19999;-46
2022/09/30 14:03:25;;;;;;;;;;;21.10;83.40;;;;;;5093491;28;19912;-49
2022/09/30 14:06:06;;;;;;;;;;;21.00;83.50;;;;;;5093194;28;19981;-49
2022/09/30 14:08:49;;;;;;;;;;;21.00;83.60;;;;;;5094182;28;19999;-48
2022/09/30 14:11:15;;;;;;;;;;;21.00;83.60;;;;;;5097960;28;19908;-49
2022/09/30 14:13:52;;;;;;;;;;;20.90;83.70;;;;;;5097892;28;20339;-50
2022/09/30 14:16:37;;;;;;;;;;;20.90;83.70;;;;;;5079784;28;19916;-49
2022/09/30 14:19:08;;;;;;;;;;;20.90;83.80;;;;;;5097892;28;19908;-49
2022/09/30 14:21:40;;;;;;;;;;;20.90;83.70;;;;;;5097851;28;19909;-49
2022/09/30 14:24:11;;;;;;;;;;;20.90;83.70;;;;;;5079622;28;20376;-50
2022/09/30 14:26:42;;;;;;;;;;;21.00;83.70;;;;;;5097364;28;19944;-51
2022/09/30 14:29:17;;;;;;;;;;;21.00;83.50;;;;;;5079020;28;19965;-49
2022/09/30 14:31:43;;;;;;;;;;;21.10;83.30;;;;;;5096993;28;19909;-51
2022/09/30 14:34:11;;;;;;;;;;;21.20;83.10;;;;;;5097420;28;19961;-49
2022/09/30 14:36:37;;;;;;;;;;;21.20;83.00;;;;;;5096982;28;19908;-51
2022/09/30 14:39:04;;;;;;;;;;;21.20;82.80;;;;;;5097280;28;19908;-48